Time;durP1;ratioP1;P1;durP2;ratioP2;P2;SDS_P1;SDS_P2;PMS_P1;PMS_P2;Temp;Humidity;BMP_temperature;BMP_pressure;BME280_temperature;BME280_humidity;BME280_pressure;Samples;Min_cycle;Max_cycle;Signal;HPM_P1;HPM_P2
2023/06/03 00:02:13;;;;;;;3.57;2.80;;;;;;;21.33;58.39;97490.56;5048586;28;20252;-31
2023/06/03 00:04:42;;;;;;;3.53;2.70;;;;;;;21.34;58.03;97494.84;5049101;28;20255;-30
2023/06/03 00:07:09;;;;;;;5.60;2.90;;;;;;;21.33;58.17;97488.88;5049301;28;20239;-29
2023/06/03 00:09:36;;;;;;;4.50;3.00;;;;;;;21.31;58.25;97485.41;5047059;28;20667;-28
2023/06/03 00:12:03;;;;;;;4.40;2.90;;;;;;;21.33;58.37;97481.22;5048425;28;20302;-28
2023/06/03 00:14:29;;;;;;;6.53;3.03;;;;;;;21.31;59.02;97485.41;5049067;28;20251;-29
2023/06/03 00:16:56;;;;;;;3.27;2.70;;;;;;;21.33;58.54;97477.78;5048329;28;20242;-28
2023/06/03 00:19:23;;;;;;;5.13;3.20;;;;;;;21.33;58.39;97485.44;5049278;28;20201;-29
2023/06/03 00:21:49;;;;;;;4.47;2.80;;;;;;;21.33;58.21;97491.44;5048502;28;20327;-29
2023/06/03 00:24:23;;;;;;;6.67;3.47;;;;;;;21.34;58.50;97482.94;5048877;28;20220;-28
2023/06/03 00:26:50;;;;;;;3.57;2.90;;;;;;;21.34;58.64;97489.72;5043544;28;20205;-30
2023/06/03 00:29:18;;;;;;;3.80;2.80;;;;;;;21.30;58.59;97476.00;5047463;28;20212;-29
2023/06/03 00:31:45;;;;;;;4.33;3.10;;;;;;;21.33;58.26;97477.78;5046755;28;20229;-30
2023/06/03 00:34:11;;;;;;;6.73;3.13;;;;;;;21.31;58.64;97477.72;5042165;28;20276;-28
2023/06/03 00:36:39;;;;;;;4.13;2.80;;;;;;;21.35;58.20;97489.78;5048647;28;20204;-29
2023/06/03 00:39:06;;;;;;;5.57;3.10;;;;;;;21.35;58.91;97488.94;5045739;28;20229;-29
2023/06/03 00:41:33;;;;;;;3.10;2.50;;;;;;;21.34;58.39;97490.59;5048972;28;20669;-29
2023/06/03 00:44:00;;;;;;;6.50;2.73;;;;;;;21.33;58.63;97485.44;5048706;28;20258;-29
2023/06/03 00:46:26;;;;;;;6.27;3.10;;;;;;;21.32;58.51;97489.69;5046557;28;20205;-29
2023/06/03 00:48:53;;;;;;;5.47;2.80;;;;;;;21.32;58.58;97478.63;5048036;28;20205;-29
2023/06/03 00:51:20;;;;;;;3.43;2.60;;;;;;;21.30;58.38;97481.13;5031957;28;20624;-29
2023/06/03 00:53:47;;;;;;;6.23;2.87;;;;;;;21.32;57.96;97481.16;5030110;28;20251;-29
2023/06/03 00:56:15;;;;;;;4.43;2.87;;;;;;;21.33;58.31;97486.31;5047932;28;20641;-28
2023/06/03 00:58:42;;;;;;;4.30;2.80;;;;;;;21.34;58.29;97487.16;5048171;28;20254;-29
2023/06/03 01:01:12;;;;;;;3.80;2.93;;;;;;;21.32;58.39;97486.28;5046907;28;20486;-29
2023/06/03 01:03:42;;;;;;;4.47;3.10;;;;;;;21.31;58.84;97490.50;5030004;28;20273;-29
2023/06/03 01:06:16;;;;;;;4.97;2.93;;;;;;;21.33;58.56;97483.78;5047388;28;20229;-29
2023/06/03 01:09:06;;;;;;;4.27;2.93;;;;;;;21.32;58.72;97494.78;5048054;28;20208;-28
2023/06/03 01:11:57;;;;;;;5.50;3.00;;;;;;;21.30;58.31;97482.81;5051193;28;20201;-29
2023/06/03 01:14:32;;;;;;;3.23;2.67;;;;;;;21.32;58.55;97487.13;5032826;28;20204;-29
2023/06/03 01:16:59;;;;;;;5.77;2.80;;;;;;;21.32;58.67;97489.69;5029169;28;20204;-29
2023/06/03 01:19:49;;;;;;;5.57;2.53;;;;;;;21.31;58.38;97481.97;5029827;28;20205;-29
2023/06/03 01:22:20;;;;;;;4.47;2.90;;;;;;;21.32;58.48;97473.50;5030699;28;20233;-28
2023/06/03 01:24:50;;;;;;;5.53;3.07;;;;;;;21.32;58.44;97476.06;5049332;28;20236;-29
2023/06/03 01:27:18;;;;;;;5.90;2.73;;;;;;;21.32;58.63;97479.47;5049537;28;20250;-29
2023/06/03 01:29:44;;;;;;;10.30;3.17;;;;;;;21.29;58.46;97476.81;5051478;28;20205;-30
2023/06/03 01:32:14;;;;;;;6.10;2.63;;;;;;;21.31;58.48;97475.19;5043477;28;20221;-30
2023/06/03 01:34:41;;;;;;;2.60;2.40;;;;;;;21.30;58.49;97470.03;5050677;28;20566;-30
2023/06/03 01:37:09;;;;;;;3.90;2.53;;;;;;;21.29;58.83;97471.69;5053960;28;20236;-29
2023/06/03 01:39:37;;;;;;;3.33;2.60;;;;;;;21.31;58.54;97474.31;5029354;28;20247;-30
2023/06/03 01:42:04;;;;;;;4.63;2.90;;;;;;;21.31;58.59;97472.63;5029174;28;20772;-30
2023/06/03 01:44:30;;;;;;;3.63;2.77;;;;;;;21.31;58.42;97470.06;5033349;28;20205;-29
2023/06/03 01:46:57;;;;;;;5.40;3.10;;;;;;;21.30;58.52;97472.56;5047019;28;20197;-28
2023/06/03 01:49:24;;;;;;;2.30;2.10;;;;;;;21.16;58.44;97449.16;5024635;28;20671;-30
2023/06/03 01:51:50;;;;;;;4.73;3.13;;;;;;;21.29;58.69;97466.59;5040484;28;20225;-28
2023/06/03 01:54:19;;;;;;;4.30;2.70;;;;;;;21.30;58.64;97483.69;5054523;28;20208;-28
2023/06/03 01:56:46;;;;;;;4.37;3.10;;;;;;;21.30;58.47;97473.44;5053331;28;20205;-29
2023/06/03 01:59:12;;;;;;;5.73;2.90;;;;;;;21.29;58.84;97464.03;5036238;28;20250;-29
2023/06/03 02:01:43;;;;;;;3.73;2.53;;;;;;;21.30;58.50;97468.34;5053212;28;20201;-29
2023/06/03 02:04:10;;;;;;;3.30;2.53;;;;;;;21.30;58.50;97476.00;5053243;28;20223;-29
2023/06/03 02:06:37;;;;;;;4.77;2.60;;;;;;;21.28;58.64;97475.09;5054072;28;20200;-29
2023/06/03 02:09:03;;;;;;;2.63;2.30;;;;;;;21.28;57.95;97472.53;5052405;28;20193;-29
2023/06/03 02:11:30;;;;;;;3.73;2.67;;;;;;;21.30;58.57;97470.91;5053963;28;20201;-28
2023/06/03 02:13:57;;;;;;;3.40;2.67;;;;;;;21.31;58.65;97481.97;5053230;28;20220;-28
2023/06/03 02:16:24;;;;;;;3.90;2.67;;;;;;;21.28;58.62;97469.97;5052841;28;20209;-29
2023/06/03 02:18:51;;;;;;;3.00;2.50;;;;;;;21.29;58.74;97471.69;5050531;28;20196;-29
2023/06/03 02:21:17;;;;;;;6.13;2.73;;;;;;;21.30;58.72;97472.56;5053523;28;20583;-29
2023/06/03 02:23:44;;;;;;;3.70;2.37;;;;;;;21.29;58.69;97475.97;5053501;28;20311;-28
2023/06/03 02:26:13;;;;;;;3.40;2.80;;;;;;;21.29;58.93;97474.25;5036143;28;20228;-29
2023/06/03 02:28:40;;;;;;;4.20;2.57;;;;;;;21.29;58.53;97470.84;5053531;28;20203;-29
2023/06/03 02:31:06;;;;;;;2.63;2.40;;;;;;;21.25;58.64;97458.78;5052189;28;20613;-30
2023/06/03 02:33:33;;;;;;;3.40;2.80;;;;;;;21.27;58.69;97459.72;5052036;28;20220;-29
2023/06/03 02:35:59;;;;;;;2.60;2.27;;;;;;;21.30;58.87;97462.34;5053127;28;20262;-28
2023/06/03 02:38:26;;;;;;;2.93;2.30;;;;;;;21.28;58.70;97464.88;5053040;28;20193;-28
2023/06/03 02:40:53;;;;;;;4.33;2.77;;;;;;;21.26;58.84;97461.38;5053414;28;20627;-28
2023/06/03 02:43:19;;;;;;;3.10;2.50;;;;;;;21.27;58.77;97458.03;5050283;28;20274;-28
2023/06/03 02:45:46;;;;;;;3.77;2.77;;;;;;;21.28;58.47;97467.41;5053028;28;20200;-28
2023/06/03 02:48:12;;;;;;;3.27;2.70;;;;;;;21.29;58.93;97465.75;5052870;28;20224;-29
2023/06/03 02:50:39;;;;;;;4.07;2.60;;;;;;;21.29;58.61;97465.75;5053007;28;20579;-28
2023/06/03 02:53:07;;;;;;;4.57;2.90;;;;;;;21.29;58.58;97460.63;5053198;28;20229;-28
2023/06/03 02:55:34;;;;;;;4.10;2.63;;;;;;;21.30;58.85;97476.00;5052950;28;20802;-28
2023/06/03 02:58:01;;;;;;;3.60;2.40;;;;;;;21.29;58.91;97466.59;5053037;28;20193;-29
2023/06/03 03:00:27;;;;;;;3.73;2.70;;;;;;;21.24;58.66;97460.50;5052737;28;20200;-29
2023/06/03 03:02:54;;;;;;;3.40;2.60;;;;;;;21.29;58.87;97468.28;5052508;28;20225;-28
2023/06/03 03:05:23;;;;;;;3.27;2.70;;;;;;;21.24;58.81;97460.50;5052850;28;20255;-28
2023/06/03 03:07:50;;;;;;;3.10;2.50;;;;;;;21.26;58.75;97463.09;5052091;28;20209;-28
2023/06/03 03:10:16;;;;;;;4.37;2.47;;;;;;;21.28;58.93;97475.09;5052613;28;20236;-28
2023/06/03 03:12:43;;;;;;;3.80;2.43;;;;;;;21.27;58.95;97473.38;5052924;28;20217;-28
2023/06/03 03:15:10;;;;;;;3.03;2.53;;;;;;;21.28;59.11;97481.88;5052491;28;20627;-29
2023/06/03 03:17:37;;;;;;;2.50;2.30;;;;;;;21.26;59.01;97476.72;5053042;28;20201;-29
2023/06/03 03:20:04;;;;;;;4.03;2.70;;;;;;;21.28;58.88;97485.31;5052096;28;20296;-29
2023/06/03 03:22:30;;;;;;;3.47;2.63;;;;;;;21.28;58.75;97487.88;5053018;28;20225;-29
2023/06/03 03:24:57;;;;;;;3.63;2.40;;;;;;;21.28;58.72;97480.19;5052650;28;20288;-28
2023/06/03 03:27:23;;;;;;;3.33;2.43;;;;;;;21.29;58.80;97483.63;5052613;28;20262;-28
2023/06/03 03:29:51;;;;;;;2.90;2.33;;;;;;;21.28;58.69;97490.44;5052718;28;20287;-28
2023/06/03 03:32:19;;;;;;;4.00;2.67;;;;;;;21.26;58.72;97486.94;5052231;28;20714;-28
2023/06/03 03:35:11;;;;;;;3.27;2.53;;;;;;;21.25;58.72;97484.34;5052562;28;20227;-29
2023/06/03 03:37:37;;;;;;;3.20;2.67;;;;;;;21.27;58.70;97490.38;5030696;28;20197;-30
2023/06/03 03:40:05;;;;;;;3.10;2.77;;;;;;;21.27;58.81;97498.94;5050314;28;20225;-28
2023/06/03 03:42:32;;;;;;;4.70;2.50;;;;;;;21.27;58.60;97500.59;5052209;28;20653;-28
2023/06/03 03:44:58;;;;;;;3.80;2.30;;;;;;;21.27;58.56;97501.47;5049342;28;20201;-29
2023/06/03 03:47:25;;;;;;;2.67;2.30;;;;;;;21.25;58.71;97498.00;5019508;28;20702;-33
2023/06/03 03:49:51;;;;;;;3.70;2.70;;;;;;;21.27;58.80;97501.47;5033812;28;20201;-29
2023/06/03 03:52:22;;;;;;;4.37;2.43;;;;;;;21.27;58.93;97504.03;5051913;28;20642;-28
2023/06/03 03:54:54;;;;;;;3.23;2.37;;;;;;;21.25;58.55;97497.13;5035601;28;20192;-29
2023/06/03 03:57:21;;;;;;;2.80;2.27;;;;;;;21.26;58.74;97501.44;5034131;28;20201;-28
2023/06/03 03:59:48;;;;;;;3.80;2.23;;;;;;;21.27;58.69;97506.59;5050537;28;20649;-29
2023/06/03 04:02:14;;;;;;;4.37;2.50;;;;;;;21.26;58.80;97504.84;5051512;28;20237;-29
2023/06/03 04:04:44;;;;;;;2.70;2.43;;;;;;;21.27;58.73;97498.94;5051797;28;20656;-28
2023/06/03 04:07:16;;;;;;;3.53;2.30;;;;;;;21.27;58.90;97503.16;5051359;28;20254;-29
2023/06/03 04:09:43;;;;;;;3.03;2.57;;;;;;;21.25;58.83;97498.00;5051207;28;20231;-28
2023/06/03 04:12:29;;;;;;;4.93;2.40;;;;;;;21.28;58.77;97513.44;5017861;28;20227;-29
2023/06/03 04:14:56;;;;;;;4.00;2.57;;;;;;;21.28;58.71;97505.75;5051893;28;20284;-32
2023/06/03 04:17:25;;;;;;;5.73;2.60;;;;;;;21.28;58.98;97508.31;5046308;28;20248;-30
2023/06/03 04:19:52;;;;;;;3.10;2.53;;;;;;;21.26;58.99;97507.41;5051318;28;20237;-31
2023/06/03 04:22:21;;;;;;;3.13;2.33;;;;;;;21.29;58.66;97514.31;5030451;28;20707;-29
2023/06/03 04:24:55;;;;;;;2.47;2.17;;;;;;;21.27;58.87;97510.81;5050824;28;20244;-28
2023/06/03 04:27:21;;;;;;;3.70;2.60;;;;;;;21.28;58.77;97518.53;5038343;28;20219;-29
2023/06/03 04:29:48;;;;;;;4.27;2.50;;;;;;;21.27;59.04;97519.38;5050965;28;20192;-28
2023/06/03 04:32:15;;;;;;;2.67;2.23;;;;;;;21.27;58.90;97518.50;5050835;28;20279;-29
2023/06/03 04:34:49;;;;;;;2.50;2.30;;;;;;;21.27;58.79;97521.94;5051387;28;20196;-28
2023/06/03 04:37:15;;;;;;;4.47;2.60;;;;;;;21.27;59.06;97521.94;5049788;28;20282;-28
2023/06/03 04:39:42;;;;;;;3.30;2.50;;;;;;;21.21;58.76;97514.06;5049322;28;20294;-29
2023/06/03 04:42:10;;;;;;;2.57;2.37;;;;;;;21.27;59.11;97528.72;5050259;28;20710;-28
2023/06/03 04:44:38;;;;;;;3.63;2.40;;;;;;;21.24;58.84;97526.94;5051435;28;20203;-28
2023/06/03 04:47:10;;;;;;;4.50;2.67;;;;;;;21.27;58.81;97529.59;5050807;28;20243;-28
2023/06/03 04:49:40;;;;;;;2.47;2.17;;;;;;;21.27;59.07;97524.50;5049519;28;20207;-28
2023/06/03 04:52:10;;;;;;;4.77;2.50;;;;;;;21.27;59.01;97521.94;5051233;28;20625;-29
2023/06/03 04:54:38;;;;;;;2.97;2.37;;;;;;;21.25;58.98;97533.78;5051502;28;20806;-29
2023/06/03 04:57:05;;;;;;;2.20;2.00;;;;;;;21.21;58.92;97524.31;5050849;28;20197;-29
2023/06/03 04:59:32;;;;;;;3.27;2.70;;;;;;;21.25;58.88;97523.56;5049497;28;20246;-28
2023/06/03 05:01:58;;;;;;;3.13;2.30;;;;;;;21.21;58.61;97519.19;5050571;28;20711;-29
2023/06/03 05:04:29;;;;;;;2.93;2.17;;;;;;;21.27;59.25;97529.59;5045782;28;20622;-29
2023/06/03 05:06:56;;;;;;;2.60;2.27;;;;;;;21.24;58.41;97534.63;5051022;28;20247;-29
2023/06/03 05:09:22;;;;;;;3.90;2.40;;;;;;;21.28;58.88;97525.34;5049723;28;20205;-28
2023/06/03 05:11:49;;;;;;;2.90;2.60;;;;;;;21.27;58.90;97537.28;5049931;28;20212;-28
2023/06/03 05:14:15;;;;;;;3.17;2.17;;;;;;;21.28;58.70;97528.75;5050726;28;20221;-28
2023/06/03 05:16:42;;;;;;;2.40;2.20;;;;;;;21.23;58.68;97516.69;5050552;28;20674;-29
2023/06/03 05:19:09;;;;;;;2.40;2.20;;;;;;;21.28;58.78;97526.22;5050562;28;20706;-28
2023/06/03 05:21:35;;;;;;;3.33;2.37;;;;;;;21.28;58.95;97527.88;5048798;28;20252;-28
2023/06/03 05:24:02;;;;;;;2.20;1.97;;;;;;;21.28;58.95;97528.75;5050240;28;20630;-28
2023/06/03 05:26:29;;;;;;;3.67;2.50;;;;;;;21.29;59.05;97533.03;5050202;28;20197;-29
2023/06/03 05:28:55;;;;;;;2.97;2.10;;;;;;;21.27;58.45;97529.59;5050147;28;20205;-28
2023/06/03 05:31:22;;;;;;;2.53;2.33;;;;;;;21.29;59.17;97533.03;5048605;28;20231;-28
2023/06/03 05:33:49;;;;;;;3.27;2.50;;;;;;;21.29;59.11;97529.66;5050731;28;20294;-28
2023/06/03 05:36:15;;;;;;;2.37;2.17;;;;;;;21.28;58.84;97521.09;5050270;28;20209;-29
2023/06/03 05:38:42;;;;;;;3.33;2.57;;;;;;;21.27;58.99;97527.03;5050476;28;20200;-28
2023/06/03 05:41:09;;;;;;;2.67;2.17;;;;;;;21.29;59.06;97529.66;5049967;28;20254;-29
2023/06/03 05:43:35;;;;;;;3.80;2.70;;;;;;;21.30;58.60;97534.81;5050016;28;20213;-28
2023/06/03 05:46:02;;;;;;;3.23;2.20;;;;;;;21.30;59.01;97528.81;5049510;28;20201;-29
2023/06/03 05:48:29;;;;;;;2.50;2.27;;;;;;;21.29;58.88;97527.94;5050666;28;20237;-28
2023/06/03 05:50:56;;;;;;;2.70;2.00;;;;;;;21.27;59.15;97528.72;5045747;28;20201;-29
2023/06/03 05:53:25;;;;;;;3.93;2.40;;;;;;;21.28;59.08;97531.31;5049929;28;20220;-30
2023/06/03 05:55:52;;;;;;;2.97;2.50;;;;;;;21.28;58.95;97525.34;5050842;28;20201;-28
2023/06/03 05:58:19;;;;;;;2.70;2.30;;;;;;;21.23;58.99;97511.56;5049882;28;20251;-28
2023/06/03 06:00:45;;;;;;;2.43;1.97;;;;;;;21.29;59.02;97521.97;5050782;28;20197;-29
2023/06/03 06:03:13;;;;;;;2.50;2.30;;;;;;;21.25;58.94;97513.34;5050190;28;20229;-28
2023/06/03 06:05:40;;;;;;;2.70;2.27;;;;;;;21.06;58.77;97490.63;5050404;28;20209;-29
2023/06/03 06:08:06;;;;;;;2.63;2.30;;;;;;;21.29;59.14;97529.66;5050220;28;20197;-29
2023/06/03 06:10:33;;;;;;;5.00;2.40;;;;;;;21.29;58.85;97521.97;5050917;28;20678;-29
2023/06/03 06:12:59;;;;;;;3.63;2.43;;;;;;;21.29;58.80;97519.41;5052811;28;20220;-28
2023/06/03 06:15:29;;;;;;;4.60;2.20;;;;;;;21.29;58.81;97524.53;5053667;28;20731;-29
2023/06/03 06:17:56;;;;;;;4.37;2.40;;;;;;;21.27;58.86;97516.81;5053737;28;20228;-28
2023/06/03 06:20:23;;;;;;;2.50;2.20;;;;;;;21.27;58.61;97516.81;5035410;28;20679;-28
2023/06/03 06:22:49;;;;;;;3.63;2.43;;;;;;;21.27;59.05;97516.81;5053445;28;20217;-28
2023/06/03 06:25:16;;;;;;;3.23;2.50;;;;;;;21.29;59.04;97517.72;5053783;28;20240;-28
2023/06/03 06:27:43;;;;;;;3.03;2.20;;;;;;;21.29;59.00;97519.41;5053719;28;20240;-28
2023/06/03 06:30:10;;;;;;;4.53;2.57;;;;;;;21.29;59.13;97516.88;5053803;28;20193;-29
2023/06/03 06:32:48;;;;;;;3.60;2.50;;;;;;;21.29;59.04;97521.97;5019290;28;20602;-28
2023/06/03 06:35:18;;;;;;;3.50;2.47;;;;;;;21.28;58.89;97520.22;5036178;28;20789;-28
2023/06/03 06:37:45;;;;;;;3.50;2.43;;;;;;;21.28;59.07;97522.78;5052981;28;20656;-28
2023/06/03 06:40:18;;;;;;;3.37;2.37;;;;;;;21.28;59.07;97510.00;5053404;28;20200;-28
2023/06/03 06:42:45;;;;;;;4.17;2.33;;;;;;;21.29;59.05;97520.25;5053002;28;20263;-28
2023/06/03 06:45:27;;;;;;;2.87;2.37;;;;;;;21.29;58.96;97529.66;5053251;28;20193;-29
2023/06/03 06:48:03;;;;;;;3.33;2.50;;;;;;;21.27;59.05;97521.06;5037461;28;20197;-29
2023/06/03 06:50:53;;;;;;;4.00;2.60;;;;;;;21.29;59.11;97527.94;5030206;28;20260;-29
2023/06/03 06:53:21;;;;;;;2.80;2.50;;;;;;;21.29;58.98;97521.97;5052908;28;20233;-28
2023/06/03 06:55:49;;;;;;;3.47;2.30;;;;;;;21.29;59.37;97535.59;5053415;28;20255;-28
2023/06/03 06:58:16;;;;;;;3.30;2.23;;;;;;;21.29;59.08;97532.19;5052859;28;20699;-28
2023/06/03 07:00:43;;;;;;;3.57;2.33;;;;;;;21.28;59.11;97541.53;5034559;28;20663;-29
2023/06/03 07:03:11;;;;;;;3.80;2.50;;;;;;;21.26;59.31;97539.78;5052410;28;20274;-28
2023/06/03 07:05:37;;;;;;;3.63;2.33;;;;;;;21.28;59.15;97538.09;5049844;28;20322;-29
2023/06/03 07:08:04;;;;;;;4.63;2.70;;;;;;;21.27;59.19;97528.72;5052943;28;20201;-29
2023/06/03 07:10:31;;;;;;;5.33;2.57;;;;;;;21.27;58.94;97531.28;5044191;28;20207;-29
2023/06/03 07:12:58;;;;;;;4.60;2.20;;;;;;;21.25;59.16;97527.78;5035705;28;20217;-28
2023/06/03 07:15:25;;;;;;;3.47;2.77;;;;;;;21.25;58.88;97540.56;5037099;28;20221;-29
2023/06/03 07:17:55;;;;;;;3.80;2.33;;;;;;;21.26;59.29;97535.50;5052803;28;20200;-28
2023/06/03 07:20:32;;;;;;;4.30;2.53;;;;;;;21.27;59.20;97541.50;5052477;28;20763;-29
2023/06/03 07:22:58;;;;;;;4.13;2.50;;;;;;;21.26;59.22;97542.34;5030812;28;20605;-29
2023/06/03 07:25:37;;;;;;;5.43;2.70;;;;;;;21.28;59.05;97535.56;5052528;28;20197;-29
2023/06/03 07:28:05;;;;;;;4.90;2.53;;;;;;;21.26;59.18;97538.06;5052513;28;20216;-29
2023/06/03 07:30:34;;;;;;;5.57;2.80;;;;;;;21.27;59.04;97544.06;5034838;28;20480;-30
2023/06/03 07:33:01;;;;;;;5.63;2.80;;;;;;;21.26;59.11;97539.78;5051623;28;20224;-29
2023/06/03 07:35:28;;;;;;;2.83;2.17;;;;;;;21.24;59.26;97534.63;5051433;28;20239;-29
2023/06/03 07:37:55;;;;;;;5.67;2.23;;;;;;;21.26;59.34;97538.06;5035055;28;20201;-29
2023/06/03 07:40:28;;;;;;;3.60;2.73;;;;;;;21.27;58.90;97533.84;5051983;28;20212;-28
2023/06/03 07:42:54;;;;;;;3.90;2.50;;;;;;;21.24;59.04;97533.75;5052234;28;20247;-29
2023/06/03 07:45:21;;;;;;;9.17;2.50;;;;;;;21.26;59.45;97548.28;5052387;28;20201;-28
2023/06/03 07:47:48;;;;;;;4.50;2.57;;;;;;;21.26;59.14;97540.63;5042369;28;20586;-29
2023/06/03 07:50:23;;;;;;;3.73;2.70;;;;;;;21.24;59.20;97534.63;5033868;28;20247;-28
2023/06/03 07:53:00;;;;;;;4.43;2.70;;;;;;;21.26;59.17;97537.22;5048669;28;20217;-29
2023/06/03 07:55:47;;;;;;;6.47;2.73;;;;;;;21.27;58.69;97544.06;5051457;28;20221;-28
2023/06/03 07:58:13;;;;;;;4.07;2.47;;;;;;;21.28;58.33;97546.66;5051576;28;20295;-29
2023/06/03 08:00:45;;;;;;;5.23;2.83;;;;;;;21.27;58.25;97542.38;5049310;28;20220;-29
2023/06/03 08:03:15;;;;;;;3.67;2.50;;;;;;;21.27;58.18;97544.94;5049843;28;20699;-29
2023/06/03 08:05:42;;;;;;;4.90;2.60;;;;;;;21.25;58.44;97538.03;5051849;28;20205;-28
2023/06/03 08:08:09;;;;;;;4.50;2.77;;;;;;;21.27;58.43;97541.50;5032579;28;20636;-32
2023/06/03 08:10:36;;;;;;;7.00;3.30;;;;;;;21.28;58.31;97544.09;5051310;28;20863;-29
2023/06/03 08:13:02;;;;;;;6.27;2.90;;;;;;;21.29;58.61;97547.53;5043887;28;20221;-31
2023/06/03 08:15:32;;;;;;;8.97;3.10;;;;;;;21.28;58.70;97543.22;5040307;28;20238;-30
2023/06/03 08:17:59;;;;;;;6.23;2.50;;;;;;;21.27;58.53;97547.50;5022543;28;20223;-28
2023/06/03 08:20:26;;;;;;;9.63;2.87;;;;;;;21.26;58.61;97552.56;5039867;28;20213;-29
2023/06/03 08:22:53;;;;;;;3.67;2.63;;;;;;;21.26;58.55;97543.19;5039894;28;20232;-30
2023/06/03 08:25:19;;;;;;;8.63;3.10;;;;;;;21.25;58.57;97541.44;5040939;28;20709;-29
2023/06/03 08:27:46;;;;;;;7.70;3.07;;;;;;;21.26;58.44;97555.13;5041396;28;20492;-29
2023/06/03 08:30:13;;;;;;;5.80;3.10;;;;;;;21.26;58.18;97550.00;5040005;28;20217;-30
2023/06/03 08:32:40;;;;;;;7.73;2.70;;;;;;;21.25;58.50;97553.34;5039342;28;20236;-29
2023/06/03 08:35:07;;;;;;;3.73;2.80;;;;;;;21.24;58.34;97552.50;5023107;28;20590;-30
2023/06/03 08:37:34;;;;;;;7.70;3.00;;;;;;;21.26;58.29;97539.78;5041388;28;20627;-29
2023/06/03 08:40:01;;;;;;;5.27;3.00;;;;;;;21.26;58.31;97547.44;5040543;28;20298;-28
2023/06/03 08:42:30;;;;;;;6.17;3.07;;;;;;;21.25;58.29;97540.56;5040947;28;20221;-31
2023/06/03 08:45:04;;;;;;;5.13;3.23;;;;;;;21.17;58.38;97530.13;5032376;28;20216;-29
2023/06/03 08:47:41;;;;;;;4.47;3.27;;;;;;;21.25;58.38;97538.91;5040662;28;20224;-28
2023/06/03 08:50:13;;;;;;;4.93;2.90;;;;;;;21.23;58.59;97540.53;5032695;28;20667;-29
2023/06/03 08:52:39;;;;;;;4.77;3.17;;;;;;;21.25;58.76;97540.56;5025416;28;20228;-28
2023/06/03 08:55:06;;;;;;;5.33;3.10;;;;;;;21.25;58.45;97544.00;5041423;28;20224;-29
2023/06/03 08:57:56;;;;;;;6.60;3.10;;;;;;;21.25;58.39;97544.00;5040329;28;20213;-29
2023/06/03 09:00:24;;;;;;;8.07;3.27;;;;;;;21.23;58.22;97537.13;5039414;28;20201;-29
2023/06/03 09:02:51;;;;;;;3.83;2.90;;;;;;;21.24;58.54;97546.53;5039814;28;20232;-29
2023/06/03 09:05:21;;;;;;;8.60;3.10;;;;;;;21.25;58.39;97538.91;5040371;28;20506;-28
2023/06/03 09:07:50;;;;;;;4.73;2.97;;;;;;;21.24;58.28;97539.72;5041528;28;20228;-29
2023/06/03 09:10:22;;;;;;;4.93;3.13;;;;;;;21.24;58.57;97539.72;5041591;28;20201;-29
2023/06/03 09:12:49;;;;;;;4.90;3.00;;;;;;;21.26;58.62;97537.22;5042966;28;20741;-28
2023/06/03 09:15:16;;;;;;;7.10;3.33;;;;;;;21.26;58.71;97550.84;5049444;28;20225;-28
2023/06/03 09:17:43;;;;;;;3.13;2.70;;;;;;;21.26;58.75;97545.72;5050376;28;20207;-28
2023/06/03 09:20:11;;;;;;;3.60;2.83;;;;;;;21.27;58.55;97532.16;5050486;28;20641;-29
2023/06/03 09:22:38;;;;;;;4.23;2.70;;;;;;;21.26;58.79;97527.84;5049583;28;20723;-29
2023/06/03 09:25:05;;;;;;;5.47;3.80;;;;;;;21.29;58.96;97532.19;5050730;28;20193;-28
2023/06/03 09:27:32;;;;;;;6.00;3.67;;;;;;;21.30;58.68;97536.47;5049597;28;20197;-33
2023/06/03 09:30:01;;;;;;;8.37;2.97;;;;;;;21.31;58.70;97535.66;5032124;28;20197;-29
2023/06/03 09:32:30;;;;;;;7.27;3.10;;;;;;;21.31;58.39;97536.53;5049718;28;20217;-29
2023/06/03 09:34:57;;;;;;;5.87;3.50;;;;;;;21.29;58.45;97538.16;5044875;28;20216;-29
2023/06/03 09:37:24;;;;;;;4.43;2.93;;;;;;;21.30;58.51;97533.94;5050259;28;20580;-29
2023/06/03 09:39:57;;;;;;;6.53;3.20;;;;;;;21.27;59.23;97524.50;5048506;28;20205;-28
2023/06/03 09:42:24;;;;;;;6.33;3.80;;;;;;;21.30;58.34;97534.81;5050281;28;20278;-28
2023/06/03 09:44:55;;;;;;;5.13;3.40;;;;;;;21.29;58.99;97530.50;5032645;28;20197;-28
2023/06/03 09:47:22;;;;;;;4.67;3.00;;;;;;;21.30;58.28;97531.38;5054369;28;20208;-29
2023/06/03 09:50:04;;;;;;;6.70;3.30;;;;;;;21.29;58.71;97538.16;5053438;28;20239;-30
2023/06/03 09:52:35;;;;;;;6.00;3.17;;;;;;;21.30;58.65;97536.47;5052148;28;20727;-29
2023/06/03 09:55:05;;;;;;;8.10;3.60;;;;;;;21.30;58.54;97531.38;5053508;28;20216;-28
2023/06/03 09:57:32;;;;;;;5.90;3.50;;;;;;;21.31;58.44;97533.09;5054138;28;20200;-28
2023/06/03 10:00:10;;;;;;;8.13;3.50;;;;;;;21.28;58.59;97523.66;5054043;28;20212;-29
2023/06/03 10:02:38;;;;;;;8.33;3.30;;;;;;;21.29;58.54;97542.44;5041908;28;20220;-28
2023/06/03 10:05:25;;;;;;;3.87;2.80;;;;;;;21.31;58.54;97533.09;5053951;28;20199;-29
2023/06/03 10:07:52;;;;;;;6.80;3.30;;;;;;;21.31;58.66;97533.09;5039794;28;20196;-28
2023/06/03 10:10:19;;;;;;;6.57;3.30;;;;;;;21.29;58.61;97538.16;5052605;28;20205;-29
2023/06/03 10:12:48;;;;;;;5.03;3.10;;;;;;;21.30;58.57;97528.81;5036125;28;20711;-29
2023/06/03 10:15:33;;;;;;;4.40;3.07;;;;;;;21.30;58.69;97537.34;5053669;28;20217;-28
2023/06/03 10:18:00;;;;;;;8.07;3.07;;;;;;;21.30;58.92;97531.38;5048585;28;20660;-29
2023/06/03 10:20:34;;;;;;;6.30;3.33;;;;;;;21.31;58.59;97531.41;5053595;28;20228;-29
2023/06/03 10:23:04;;;;;;;9.37;3.17;;;;;;;21.30;58.69;97529.69;5054229;28;20253;-28
2023/06/03 10:25:42;;;;;;;4.87;3.33;;;;;;;21.30;58.70;97524.56;5053436;28;20600;-29
2023/06/03 10:28:12;;;;;;;6.73;3.30;;;;;;;21.29;58.67;97520.25;5054071;28;20224;-28
2023/06/03 10:30:42;;;;;;;6.00;3.23;;;;;;;21.30;58.31;97519.47;5053445;28;20611;-28
2023/06/03 10:33:09;;;;;;;5.60;3.33;;;;;;;21.31;58.50;97526.31;5053347;28;20282;-30
2023/06/03 10:35:37;;;;;;;5.63;3.30;;;;;;;21.30;58.53;97516.91;5052519;28;20217;-28
2023/06/03 10:38:09;;;;;;;6.10;3.30;;;;;;;21.31;58.61;97526.31;5035519;28;20193;-28
2023/06/03 10:40:35;;;;;;;5.77;3.10;;;;;;;21.32;58.86;97525.47;5033541;28;20205;-29
2023/06/03 10:43:02;;;;;;;7.83;4.00;;;;;;;21.31;58.67;97518.63;5053121;28;20217;-29
2023/06/03 10:45:29;;;;;;;5.43;3.43;;;;;;;21.33;58.21;97524.66;5052708;28;20193;-28
2023/06/03 10:48:08;;;;;;;5.57;3.17;;;;;;;21.32;58.72;97514.41;5022061;28;20209;-28
2023/06/03 10:50:47;;;;;;;4.17;3.03;;;;;;;21.35;58.68;97520.44;5035558;28;20211;-32
2023/06/03 10:53:35;;;;;;;6.60;3.30;;;;;;;21.34;58.44;97513.59;5053229;28;20216;-29
2023/06/03 10:56:08;;;;;;;5.80;3.40;;;;;;;21.34;58.55;97521.28;5051602;28;20220;-28
2023/06/03 10:58:34;;;;;;;6.63;3.20;;;;;;;21.32;58.42;97524.63;5033888;28;20239;-29
2023/06/03 11:01:02;;;;;;;6.33;3.37;;;;;;;21.35;58.69;97522.16;5053025;28;20220;-28
2023/06/03 11:03:34;;;;;;;6.47;3.60;;;;;;;21.34;58.56;97505.94;5052844;28;20225;-29
2023/06/03 11:06:21;;;;;;;6.73;3.20;;;;;;;21.35;58.47;97507.66;5052565;28;20193;-29
2023/06/03 11:09:06;;;;;;;3.93;3.10;;;;;;;21.35;58.56;97512.78;5045471;28;20204;-29
2023/06/03 11:11:38;;;;;;;4.43;3.07;;;;;;;21.35;58.47;97515.34;5051124;28;20193;-28
2023/06/03 11:14:06;;;;;;;4.30;2.93;;;;;;;21.36;58.55;97521.31;5052216;28;20204;-29
2023/06/03 11:16:57;;;;;;;6.40;3.40;;;;;;;21.35;58.36;97520.44;5051655;28;20205;-28
2023/06/03 11:19:30;;;;;;;5.80;3.23;;;;;;;21.35;58.27;97506.81;5050249;28;20726;-28
2023/06/03 11:21:58;;;;;;;6.10;3.27;;;;;;;21.34;58.52;97511.06;5051390;28;20300;-28
2023/06/03 11:24:43;;;;;;;5.53;3.20;;;;;;;21.35;58.49;97509.38;5052418;28;20582;-29
2023/06/03 11:27:09;;;;;;;4.37;3.50;;;;;;;21.37;58.90;97507.72;5052513;28;20201;-35
2023/06/03 11:29:48;;;;;;;7.30;3.53;;;;;;;21.36;58.58;97506.88;5051922;28;20710;-29
2023/06/03 11:32:19;;;;;;;5.80;3.60;;;;;;;21.37;58.45;97505.16;5052640;28;20216;-28
2023/06/03 11:34:51;;;;;;;6.77;3.40;;;;;;;21.39;59.03;97514.63;5051000;28;20635;-29
2023/06/03 11:37:19;;;;;;;9.57;4.13;;;;;;;21.38;58.89;97502.66;5034804;28;20455;-28
2023/06/03 11:40:08;;;;;;;8.23;3.90;;;;;;;21.40;59.01;97501.00;5051788;28;20244;-28
2023/06/03 11:42:50;;;;;;;10.73;4.37;;;;;;;21.42;58.76;97507.03;5052647;28;20753;-28
2023/06/03 11:45:17;;;;;;;13.57;4.70;;;;;;;21.40;59.01;97501.00;5051321;28;20201;-30